メンフィス の空港の天気 - METARとTAF

メンフィス国際空港 ( KMEM / MEM ) - アメリカ テネシー州メンフィス
飛行場実況気象(Metar)
観測時間08/04 05:54 CDT (08/04 10:54 UTC)
風向・風速北北東 4m/s
視程10km以上
天気現象
全天の8割程度の雲 雲底高度 270m
気温21.7℃
湿度87%
気圧1014.7hPa
METARKMEM 041054Z 02008KT 10SM BKN009 22/19 A2998 RMK AO2 SLP147 T02170194
過去の天気等 Google飛行場航空写真 Wunderground天気予報

過去48時間のMETAR

飛行場予報(TAF)
発表時間: 8/04 05:02 CDT (8/04 10:02 UTC)
予報対象時間: 4日5時 CDT ~ 5日7時 CDT
風向・風速北 4m/s
視程10km以上
全天の8割程度の雲 雲底高度 370m
4日6時 CDT ~ 4日8時 CDT に一時的に
全天の8割程度の雲 雲底高度 270m
4日10時 CDT から
風向・風速北 4m/s
視程10km以上
全天の4割程度の雲 雲底高度 460m
全天の8割程度の雲 雲底高度 760m
4日13時 CDT から
風向・風速北 5m/s
視程10km以上
全天の4割程度の雲 雲底高度 1370m
4日19時 CDT から
風向・風速北 4m/s
視程10km以上
全天の4割程度の雲 雲底高度 7620m
4日23時 CDT から
風向・風速北東 2m/s
視程10km以上
なし
KMEM 041002Z 0410/0512 01007KT P6SM BKN012
TEMPO 0411/0413 BKN009
FM041500 01007KT P6SM SCT015 BKN025
FM041800 35009KT P6SM SCT045
FM050000 36008KT P6SM SCT250
FM050400 05004KT P6SM SKC